Time;durP1;ratioP1;P1;durP2;ratioP2;P2;SDS_P1;SDS_P2;PMS_P1;PMS_P2;Temp;Humidity;BMP_temperature;BMP_pressure;BME280_temperature;BME280_humidity;BME280_pressure;Samples;Min_cycle;Max_cycle;Signal;HPM_P1;HPM_P2
2020/12/20 00:00:06;;;;;;;19.93;14.83;;;2.70;99.90;;;;;;4954031;29;20239;-45
2020/12/20 00:02:33;;;;;;;12.97;10.27;;;2.80;99.90;;;;;;4954328;29;20266;-45
2020/12/20 00:05:00;;;;;;;14.43;12.40;;;2.80;99.90;;;;;;4954166;29;20263;-48
2020/12/20 00:07:27;;;;;;;20.63;10.07;;;2.80;99.90;;;;;;4954336;29;20241;-41
2020/12/20 00:09:55;;;;;;;11.50;10.30;;;2.80;99.90;;;;;;4954254;29;20314;-41
2020/12/20 00:12:22;;;;;;;12.73;10.10;;;2.90;99.90;;;;;;4953638;29;20234;-41
2020/12/20 00:14:49;;;;;;;13.70;10.30;;;2.90;99.90;;;;;;4953882;29;20284;-41
2020/12/20 00:17:16;;;;;;;17.67;13.10;;;3.00;99.90;;;;;;4953862;29;20294;-43
2020/12/20 00:19:43;;;;;;;12.13;9.93;;;3.00;99.90;;;;;;4953859;29;20701;-42
2020/12/20 00:22:12;;;;;;;10.30;9.23;;;2.90;99.90;;;;;;4953692;29;20218;-43
2020/12/20 00:24:39;;;;;;;10.90;8.87;;;2.90;99.90;;;;;;4953903;29;20258;-44
2020/12/20 00:27:10;;;;;;;11.03;8.90;;;2.90;99.90;;;;;;4953752;29;20299;-42
2020/12/20 00:29:38;;;;;;;11.07;9.63;;;2.90;99.90;;;;;;4953692;29;20251;-42
2020/12/20 00:32:07;;;;;;;14.40;13.03;;;3.00;99.90;;;;;;4953856;29;20306;-45
2020/12/20 00:34:34;;;;;;;9.03;8.20;;;3.00;99.90;;;;;;4959577;28;20207;-41
2020/12/20 00:37:02;;;;;;;10.50;9.30;;;3.10;99.90;;;;;;4960129;28;20367;-42
2020/12/20 00:39:29;;;;;;;10.07;7.50;;;3.10;99.90;;;;;;4960204;28;20215;-42
2020/12/20 00:41:59;;;;;;;9.27;8.37;;;3.00;99.90;;;;;;4959954;28;20293;-43
2020/12/20 00:44:27;;;;;;;8.53;7.50;;;3.10;99.90;;;;;;4960055;28;20776;-43
2020/12/20 00:46:56;;;;;;;9.43;8.43;;;3.10;99.90;;;;;;4960389;28;20305;-41
2020/12/20 00:49:23;;;;;;;13.23;11.07;;;3.10;99.90;;;;;;4960255;28;20310;-42
2020/12/20 00:51:51;;;;;;;10.20;9.10;;;3.00;99.90;;;;;;4960306;29;20357;-42
2020/12/20 00:54:18;;;;;;;9.77;8.77;;;3.00;99.90;;;;;;4959800;29;20585;-43
2020/12/20 00:56:45;;;;;;;9.37;7.77;;;2.90;99.90;;;;;;4960058;28;20305;-43
2020/12/20 00:59:13;;;;;;;10.13;8.33;;;2.90;99.90;;;;;;4960072;29;20211;-46
2020/12/20 01:01:41;;;;;;;10.30;8.57;;;2.90;99.90;;;;;;4960173;29;20245;-43
2020/12/20 01:04:08;;;;;;;10.47;8.97;;;2.80;99.90;;;;;;4959927;28;20235;-42
2020/12/20 01:06:35;;;;;;;10.30;8.33;;;2.80;99.90;;;;;;4959925;28;20298;-41
2020/12/20 01:09:02;;;;;;;8.53;7.70;;;2.80;99.90;;;;;;4959669;29;20302;-45
2020/12/20 01:11:29;;;;;;;9.93;8.90;;;2.90;99.90;;;;;;4959979;29;20720;-50
2020/12/20 01:13:56;;;;;;;11.70;8.43;;;2.90;99.90;;;;;;4959904;29;20235;-47
2020/12/20 01:16:26;;;;;;;9.77;8.50;;;2.90;99.90;;;;;;4959854;28;20246;-47
2020/12/20 01:18:54;;;;;;;12.83;9.70;;;2.70;99.90;;;;;;4959850;28;20750;-45
2020/12/20 01:21:21;;;;;;;10.90;9.37;;;2.70;99.90;;;;;;4959801;28;20682;-49
2020/12/20 01:23:48;;;;;;;10.50;8.83;;;2.70;99.90;;;;;;4959687;29;20329;-48
2020/12/20 01:26:15;;;;;;;8.43;7.43;;;2.70;99.90;;;;;;4959679;28;20675;-44
2020/12/20 01:28:43;;;;;;;8.27;7.33;;;2.60;99.90;;;;;;4959853;28;20294;-48
2020/12/20 01:31:12;;;;;;;8.67;7.77;;;2.70;99.90;;;;;;4959789;29;20686;-46
2020/12/20 01:33:39;;;;;;;7.73;6.93;;;2.70;99.90;;;;;;4959733;29;20208;-45
2020/12/20 01:36:08;;;;;;;8.90;8.00;;;2.70;99.90;;;;;;4959650;28;20250;-47
2020/12/20 01:38:35;;;;;;;8.37;7.50;;;2.70;99.90;;;;;;4959813;29;20595;-46
2020/12/20 01:41:03;;;;;;;9.23;8.07;;;2.80;99.90;;;;;;4959803;29;20294;-46
2020/12/20 01:43:43;;;;;;;8.53;7.53;;;2.80;99.90;;;;;;4959699;29;20327;-47
2020/12/20 01:46:12;;;;;;;8.93;8.07;;;2.90;99.90;;;;;;4955648;28;20229;-49
2020/12/20 01:48:40;;;;;;;8.47;7.53;;;2.80;99.90;;;;;;4956401;29;20251;-46
2020/12/20 01:51:08;;;;;;;9.50;7.80;;;2.80;99.90;;;;;;4956659;29;20222;-45
2020/12/20 01:53:36;;;;;;;7.93;7.13;;;2.90;99.90;;;;;;4956478;29;20220;-46
2020/12/20 01:56:04;;;;;;;8.63;7.57;;;2.90;99.90;;;;;;4956359;29;20214;-48
2020/12/20 01:58:36;;;;;;;9.13;8.23;;;2.90;99.90;;;;;;4956239;29;20298;-43
2020/12/20 02:01:05;;;;;;;9.43;8.43;;;3.00;99.90;;;;;;4956381;29;20214;-41
2020/12/20 02:03:33;;;;;;;7.90;7.07;;;3.00;99.90;;;;;;4956429;29;20678;-41
2020/12/20 02:06:02;;;;;;;9.13;8.20;;;3.00;99.90;;;;;;4956091;29;20214;-47
2020/12/20 02:08:29;;;;;;;9.33;8.37;;;3.00;99.90;;;;;;4956374;29;20246;-41
2020/12/20 02:11:11;;;;;;;8.97;8.07;;;3.10;99.90;;;;;;4956186;29;20211;-42
2020/12/20 02:13:42;;;;;;;8.53;7.73;;;3.10;99.90;;;;;;4956201;29;20271;-42
2020/12/20 02:16:11;;;;;;;9.70;8.67;;;3.10;99.90;;;;;;4956156;29;20302;-42
2020/12/20 02:18:38;;;;;;;9.57;8.40;;;3.00;99.90;;;;;;4956232;29;20249;-43
2020/12/20 02:21:13;;;;;;;8.70;7.80;;;2.90;99.90;;;;;;4956052;29;20300;-42
2020/12/20 02:23:40;;;;;;;9.33;8.30;;;3.00;99.90;;;;;;4955958;29;20330;-42
2020/12/20 02:26:09;;;;;;;10.37;8.73;;;2.90;99.90;;;;;;4955711;29;20211;-43
2020/12/20 02:28:36;;;;;;;9.47;8.23;;;2.90;99.90;;;;;;4956218;29;20306;-42
2020/12/20 02:31:03;;;;;;;9.20;8.27;;;2.90;99.90;;;;;;4956030;29;20215;-42
2020/12/20 02:33:30;;;;;;;9.27;8.37;;;2.80;99.90;;;;;;4955788;29;20243;-43
2020/12/20 02:35:57;;;;;;;9.40;8.50;;;2.90;99.90;;;;;;4955806;29;20219;-42
2020/12/20 02:38:26;;;;;;;9.70;8.67;;;2.90;99.90;;;;;;4955608;29;20246;-48
2020/12/20 02:40:53;;;;;;;9.80;8.67;;;2.80;99.90;;;;;;4955550;29;20223;-44
2020/12/20 02:43:20;;;;;;;8.97;8.10;;;2.80;99.90;;;;;;4955700;29;20321;-42
2020/12/20 02:45:47;;;;;;;9.57;8.57;;;2.80;99.90;;;;;;4955757;29;20229;-41
2020/12/20 02:48:14;;;;;;;10.87;7.50;;;2.80;99.90;;;;;;4955561;29;20294;-41
2020/12/20 02:50:41;;;;;;;9.37;8.07;;;2.80;99.90;;;;;;4955630;29;20458;-42
2020/12/20 02:53:08;;;;;;;8.73;7.83;;;2.90;99.90;;;;;;4955464;28;20226;-42
2020/12/20 02:55:36;;;;;;;8.27;7.37;;;2.90;99.90;;;;;;4955363;28;20250;-41
2020/12/20 02:58:03;;;;;;;8.60;7.80;;;3.00;99.90;;;;;;4955362;29;20215;-42
2020/12/20 03:00:31;;;;;;;7.90;7.10;;;3.10;99.90;;;;;;4955476;29;20298;-42
2020/12/20 03:02:59;;;;;;;8.13;6.97;;;3.10;99.90;;;;;;4955185;29;20665;-41
2020/12/20 03:05:26;;;;;;;7.63;6.93;;;3.20;99.90;;;;;;4955307;29;20323;-43
2020/12/20 03:07:53;;;;;;;8.67;7.87;;;3.20;99.90;;;;;;4955181;29;20302;-42
2020/12/20 03:10:20;;;;;;;8.93;8.03;;;3.20;99.90;;;;;;4955042;29;20219;-42
2020/12/20 03:12:49;;;;;;;7.83;7.03;;;3.10;99.90;;;;;;4955000;29;20627;-42
2020/12/20 03:15:16;;;;;;;8.43;7.17;;;3.10;99.90;;;;;;4955295;29;20294;-42
2020/12/20 03:17:43;;;;;;;9.80;8.07;;;3.10;99.90;;;;;;4955009;29;20208;-42
2020/12/20 03:20:11;;;;;;;8.30;7.50;;;3.10;99.90;;;;;;4954831;29;20267;-44
2020/12/20 03:22:38;;;;;;;8.97;7.80;;;3.10;99.90;;;;;;4954931;29;20302;-42
2020/12/20 03:25:05;;;;;;;10.37;9.37;;;3.10;99.90;;;;;;4954579;29;20211;-45
2020/12/20 03:27:32;;;;;;;8.20;7.40;;;3.20;99.90;;;;;;4954695;28;20314;-46
2020/12/20 03:30:00;;;;;;;9.60;7.40;;;3.20;99.90;;;;;;4954587;29;20242;-42
2020/12/20 03:32:27;;;;;;;9.47;8.27;;;3.20;99.90;;;;;;4954689;29;20307;-46
2020/12/20 03:34:54;;;;;;;9.43;8.37;;;3.10;99.90;;;;;;4954326;29;20286;-42
2020/12/20 03:37:21;;;;;;;10.07;9.07;;;3.10;99.90;;;;;;4954542;28;20250;-42
2020/12/20 03:39:48;;;;;;;10.10;8.07;;;3.00;99.90;;;;;;4954954;29;20299;-42
2020/12/20 03:42:15;;;;;;;9.47;8.07;;;3.00;99.90;;;;;;4954632;29;20211;-42
2020/12/20 03:44:42;;;;;;;9.77;8.73;;;3.00;99.90;;;;;;4954413;29;20259;-42
2020/12/20 03:47:10;;;;;;;8.50;7.70;;;3.00;99.90;;;;;;4954352;29;20246;-42
2020/12/20 03:49:37;;;;;;;9.93;8.57;;;3.00;99.90;;;;;;4954463;29;20213;-42
2020/12/20 03:52:04;;;;;;;9.57;8.57;;;3.10;99.90;;;;;;4954446;29;20236;-42
2020/12/20 03:54:31;;;;;;;9.17;8.23;;;3.00;99.90;;;;;;4954347;29;20207;-45
2020/12/20 03:56:58;;;;;;;9.73;8.83;;;3.10;99.90;;;;;;4954380;29;20622;-42
2020/12/20 03:59:25;;;;;;;8.90;8.00;;;3.00;99.90;;;;;;4954220;29;20212;-44
2020/12/20 04:01:52;;;;;;;10.70;9.27;;;3.10;99.90;;;;;;4954140;29;20294;-42
2020/12/20 04:04:20;;;;;;;9.67;8.67;;;3.20;99.90;;;;;;4954307;29;20322;-43
2020/12/20 04:06:47;;;;;;;10.57;8.97;;;3.20;99.90;;;;;;4954185;29;20207;-43
2020/12/20 04:09:14;;;;;;;10.13;9.13;;;3.20;99.90;;;;;;4953417;28;20254;-45
2020/12/20 04:11:41;;;;;;;10.90;9.27;;;3.20;99.90;;;;;;4953989;29;20678;-42
2020/12/20 04:14:08;;;;;;;9.07;8.17;;;3.20;99.90;;;;;;4953893;28;20688;-42
2020/12/20 04:16:34;;;;;;;12.17;10.13;;;3.20;99.90;;;;;;4954068;29;20275;-45
2020/12/20 04:19:01;;;;;;;9.10;7.70;;;3.20;99.90;;;;;;4954202;29;20307;-42
2020/12/20 04:21:31;;;;;;;9.27;8.37;;;3.20;99.90;;;;;;4953927;29;20207;-41
2020/12/20 04:23:58;;;;;;;8.83;7.93;;;3.20;99.90;;;;;;4953682;28;20271;-42
2020/12/20 04:26:26;;;;;;;24.67;17.27;;;3.20;99.90;;;;;;4954034;28;20211;-43
2020/12/20 04:28:53;;;;;;;13.67;11.50;;;3.20;99.90;;;;;;4953817;29;20753;-42
2020/12/20 04:31:20;;;;;;;12.17;10.00;;;3.00;99.90;;;;;;4953787;29;20670;-42
2020/12/20 04:33:47;;;;;;;11.03;8.87;;;3.00;99.90;;;;;;4953917;28;20298;-42
2020/12/20 04:36:15;;;;;;;10.03;8.97;;;2.90;99.90;;;;;;4953950;29;20305;-43
2020/12/20 04:38:42;;;;;;;10.33;8.50;;;2.90;99.90;;;;;;4953995;29;20286;-42
2020/12/20 04:41:10;;;;;;;12.17;10.50;;;3.00;99.90;;;;;;4953730;29;20259;-42
2020/12/20 04:43:37;;;;;;;9.27;8.30;;;3.10;99.90;;;;;;4953662;29;20318;-43
2020/12/20 04:46:05;;;;;;;9.93;8.87;;;3.10;99.90;;;;;;4953726;29;20222;-43
2020/12/20 04:48:37;;;;;;;11.73;9.33;;;3.10;99.90;;;;;;4953717;29;20226;-42
2020/12/20 04:51:05;;;;;;;13.10;11.80;;;3.10;99.90;;;;;;4953778;29;20298;-42
2020/12/20 04:53:32;;;;;;;11.30;9.37;;;3.10;99.90;;;;;;4953669;29;20233;-41
2020/12/20 04:56:04;;;;;;;13.70;10.13;;;3.10;99.90;;;;;;4953443;29;20302;-42
2020/12/20 04:58:31;;;;;;;11.03;9.70;;;3.10;99.90;;;;;;4953858;29;20249;-42
2020/12/20 05:00:59;;;;;;;10.60;9.60;;;3.10;99.90;;;;;;4953447;29;20649;-42
2020/12/20 05:03:26;;;;;;;11.13;9.90;;;3.10;99.90;;;;;;4953501;29;20227;-43
2020/12/20 05:05:53;;;;;;;12.83;9.23;;;3.10;99.90;;;;;;4953646;29;20572;-41
2020/12/20 05:08:21;;;;;;;10.57;9.37;;;3.10;99.90;;;;;;4953568;29;20242;-44
2020/12/20 05:10:49;;;;;;;14.33;11.07;;;3.00;99.90;;;;;;4953256;29;20311;-40
2020/12/20 05:13:17;;;;;;;11.23;9.43;;;3.00;99.90;;;;;;4953251;28;20246;-41
2020/12/20 05:15:45;;;;;;;10.20;9.17;;;3.00;99.90;;;;;;4953499;29;20242;-41
2020/12/20 05:18:14;;;;;;;10.87;9.73;;;3.00;99.90;;;;;;4953243;29;20215;-42
2020/12/20 05:20:42;;;;;;;10.43;9.13;;;3.00;99.90;;;;;;4956359;28;20211;-41
2020/12/20 05:23:10;;;;;;;11.20;9.97;;;3.20;99.90;;;;;;4956802;29;20302;-40
2020/12/20 05:25:39;;;;;;;11.30;10.07;;;3.20;99.90;;;;;;4957097;29;20219;-40
2020/12/20 05:28:14;;;;;;;10.87;9.00;;;3.20;99.90;;;;;;4957010;29;20235;-40
2020/12/20 05:30:43;;;;;;;10.83;9.17;;;3.20;99.90;;;;;;4956788;29;20331;-41
2020/12/20 05:33:23;;;;;;;13.40;10.03;;;3.20;99.90;;;;;;4956801;29;20219;-41
2020/12/20 05:35:57;;;;;;;14.27;11.70;;;3.20;99.90;;;;;;4956655;29;20298;-38
2020/12/20 05:38:24;;;;;;;12.13;9.93;;;3.30;99.90;;;;;;4956875;29;20265;-41
2020/12/20 05:40:51;;;;;;;11.73;9.53;;;3.30;99.90;;;;;;4956723;29;20216;-43
2020/12/20 05:43:23;;;;;;;12.77;10.40;;;3.30;99.90;;;;;;4956679;29;20231;-41
2020/12/20 05:45:51;;;;;;;14.10;9.50;;;3.40;99.90;;;;;;4957200;29;20306;-45
2020/12/20 05:48:20;;;;;;;12.57;10.03;;;3.40;99.90;;;;;;4956602;29;20250;-43
2020/12/20 05:50:56;;;;;;;10.43;9.33;;;3.40;99.90;;;;;;4956725;29;20251;-40
2020/12/20 05:53:24;;;;;;;11.07;9.57;;;3.30;99.90;;;;;;4956363;29;20217;-42
2020/12/20 05:55:52;;;;;;;19.27;10.43;;;3.30;99.90;;;;;;4956514;29;20214;-42
2020/12/20 05:58:19;;;;;;;13.73;10.60;;;3.40;99.90;;;;;;4956546;29;20302;-43
2020/12/20 06:00:48;;;;;;;12.33;10.27;;;3.30;99.90;;;;;;4956332;29;20222;-43
2020/12/20 06:03:16;;;;;;;10.90;9.20;;;3.30;99.90;;;;;;4956237;29;20222;-41
2020/12/20 06:05:44;;;;;;;16.50;10.43;;;3.30;99.90;;;;;;4956459;29;20226;-42
2020/12/20 06:08:13;;;;;;;13.57;10.43;;;3.40;99.90;;;;;;4955840;29;20306;-42
2020/12/20 06:10:42;;;;;;;10.93;9.83;;;3.30;99.90;;;;;;4955920;29;20263;-41
2020/12/20 06:13:11;;;;;;;14.57;9.13;;;3.40;99.90;;;;;;4955692;29;20330;-42
2020/12/20 06:15:40;;;;;;;11.47;9.80;;;3.40;99.90;;;;;;4956212;29;20396;-44
2020/12/20 06:18:09;;;;;;;14.97;9.77;;;3.30;99.90;;;;;;4955978;29;20295;-44
2020/12/20 06:20:52;;;;;;;15.93;11.13;;;3.30;99.90;;;;;;4955972;29;20576;-44
2020/12/20 06:23:21;;;;;;;10.50;9.40;;;3.20;99.90;;;;;;4955895;29;20302;-40
2020/12/20 06:25:49;;;;;;;12.93;9.37;;;3.10;99.90;;;;;;4955693;29;20247;-43
2020/12/20 06:28:19;;;;;;;11.23;9.33;;;3.10;99.90;;;;;;4955576;29;20639;-42
2020/12/20 06:30:47;;;;;;;10.23;9.13;;;3.20;99.90;;;;;;4955264;28;20258;-45
2020/12/20 06:33:24;;;;;;;12.97;10.13;;;3.20;99.90;;;;;;4955819;29;20318;-42
2020/12/20 06:35:53;;;;;;;14.23;9.27;;;3.30;99.90;;;;;;4955535;29;20411;-41
2020/12/20 06:38:22;;;;;;;11.33;8.97;;;3.30;99.90;;;;;;4955629;29;20665;-42
2020/12/20 06:40:49;;;;;;;11.53;9.17;;;3.30;99.90;;;;;;4955549;29;20750;-41
2020/12/20 06:43:28;;;;;;;14.40;10.23;;;3.30;99.90;;;;;;4955655;29;20208;-42
2020/12/20 06:45:55;;;;;;;17.90;10.80;;;3.20;99.90;;;;;;4955511;29;20283;-43
2020/12/20 06:48:34;;;;;;;12.57;10.30;;;3.20;99.90;;;;;;4955382;29;20208;-41
2020/12/20 06:51:04;;;;;;;14.87;10.87;;;3.20;99.90;;;;;;4955495;29;20298;-43
2020/12/20 06:53:51;;;;;;;15.63;9.57;;;3.20;99.90;;;;;;4955423;29;20616;-42
2020/12/20 06:56:20;;;;;;;12.37;9.80;;;3.20;99.90;;;;;;4955269;28;20219;-42
2020/12/20 06:58:47;;;;;;;17.83;15.50;;;3.20;99.90;;;;;;4955230;29;20302;-41
2020/12/20 07:01:33;;;;;;;14.90;11.50;;;3.20;99.90;;;;;;4955209;29;20717;-45
2020/12/20 07:04:00;;;;;;;13.83;11.17;;;3.20;99.90;;;;;;4954936;29;20267;-41
2020/12/20 07:06:28;;;;;;;13.73;11.27;;;3.20;99.90;;;;;;4955188;29;20211;-41
2020/12/20 07:08:58;;;;;;;15.63;10.37;;;3.30;99.90;;;;;;4955049;29;20250;-44
2020/12/20 07:11:26;;;;;;;11.10;9.77;;;3.30;99.90;;;;;;4954730;29;20247;-45
2020/12/20 07:13:54;;;;;;;12.97;10.20;;;3.30;99.90;;;;;;4954741;29;20278;-42
2020/12/20 07:16:23;;;;;;;15.27;10.53;;;3.20;99.90;;;;;;4955003;29;20211;-41
2020/12/20 07:18:57;;;;;;;12.53;10.40;;;3.20;99.90;;;;;;4954831;28;20630;-43
2020/12/20 07:22:06;;;;;;;12.73;10.47;;;3.20;99.90;;;;;;4954979;29;20246;-41
2020/12/20 07:24:37;;;;;;;13.27;10.77;;;3.10;99.90;;;;;;4954810;29;20238;-42
2020/12/20 07:27:06;;;;;;;12.53;10.27;;;3.10;99.90;;;;;;4954830;29;20242;-41
2020/12/20 07:29:34;;;;;;;14.57;10.60;;;3.10;99.90;;;;;;4954523;28;20766;-42
2020/12/20 07:32:03;;;;;;;13.87;9.43;;;3.20;99.90;;;;;;4954418;29;20242;-41
2020/12/20 07:34:31;;;;;;;11.33;9.77;;;3.30;99.90;;;;;;4954567;29;20235;-41
2020/12/20 07:36:58;;;;;;;15.63;10.47;;;3.30;99.90;;;;;;4954529;29;20569;-42
2020/12/20 07:39:25;;;;;;;16.10;10.77;;;3.20;99.90;;;;;;4954488;29;20248;-42
2020/12/20 07:41:57;;;;;;;13.13;10.13;;;3.20;99.90;;;;;;4954511;28;20302;-41
2020/12/20 07:44:24;;;;;;;13.13;9.67;;;3.20;99.90;;;;;;4953767;29;20314;-44
2020/12/20 07:46:51;;;;;;;16.57;10.13;;;3.20;99.90;;;;;;4954186;29;20215;-42
2020/12/20 07:49:18;;;;;;;11.50;10.00;;;3.20;99.90;;;;;;4954321;29;20306;-42
2020/12/20 07:51:45;;;;;;;11.70;9.80;;;3.10;99.90;;;;;;4954445;29;20243;-42
2020/12/20 07:54:14;;;;;;;11.73;10.20;;;3.10;99.90;;;;;;4954034;29;20210;-44
2020/12/20 07:56:44;;;;;;;13.13;10.37;;;3.30;99.90;;;;;;4954340;29;20211;-42
2020/12/20 07:59:14;;;;;;;12.43;8.73;;;3.40;99.90;;;;;;4954103;29;20211;-43
2020/12/20 08:01:42;;;;;;;10.00;8.83;;;3.50;99.90;;;;;;4954230;29;20625;-43
2020/12/20 08:04:11;;;;;;;11.03;9.77;;;3.60;99.90;;;;;;4953871;29;20648;-44
2020/12/20 08:06:40;;;;;;;11.60;10.30;;;3.70;99.90;;;;;;4954257;29;20216;-42
2020/12/20 08:09:09;;;;;;;11.97;10.07;;;3.70;99.90;;;;;;4953929;28;20575;-43
2020/12/20 08:11:37;;;;;;;12.47;10.37;;;3.70;99.90;;;;;;4954040;29;20215;-42
2020/12/20 08:14:06;;;;;;;12.30;10.27;;;3.70;99.90;;;;;;4953543;29;20714;-42
2020/12/20 08:16:36;;;;;;;10.90;9.80;;;3.70;99.90;;;;;;4953981;29;20250;-44
2020/12/20 08:19:05;;;;;;;11.37;10.17;;;3.70;99.90;;;;;;4954015;29;20298;-42
2020/12/20 08:22:00;;;;;;;13.10;10.20;;;3.80;99.90;;;;;;4954089;28;20215;-41
2020/12/20 08:24:30;;;;;;;11.03;9.40;;;3.80;99.90;;;;;;4953713;29;20235;-41
2020/12/20 08:26:57;;;;;;;11.30;9.33;;;3.70;99.90;;;;;;4953983;29;20217;-42
2020/12/20 08:29:24;;;;;;;12.77;10.80;;;3.70;99.90;;;;;;4953761;29;20306;-42
2020/12/20 08:31:52;;;;;;;10.77;9.60;;;3.70;99.90;;;;;;4953597;28;20721;-42
2020/12/20 08:34:21;;;;;;;12.70;10.53;;;3.70;99.90;;;;;;4953767;29;20263;-42
2020/12/20 08:36:50;;;;;;;13.33;10.17;;;3.80;99.90;;;;;;4953503;29;20216;-41
2020/12/20 08:39:22;;;;;;;13.17;11.30;;;3.80;99.90;;;;;;4953630;29;20212;-43
2020/12/20 08:42:00;;;;;;;11.90;10.50;;;3.90;99.90;;;;;;4953539;29;20255;-43
2020/12/20 08:44:28;;;;;;;14.63;10.20;;;3.90;99.90;;;;;;4953522;29;20651;-44
2020/12/20 08:47:09;;;;;;;13.57;11.60;;;4.00;99.90;;;;;;4953601;29;20207;-42
2020/12/20 08:49:36;;;;;;;14.97;11.27;;;4.10;99.90;;;;;;4953732;29;20552;-43
2020/12/20 08:52:13;;;;;;;11.17;9.83;;;4.10;99.90;;;;;;4953434;29;20770;-43
2020/12/20 08:54:47;;;;;;;17.50;11.43;;;4.10;99.90;;;;;;4955154;28;20207;-42
2020/12/20 08:57:14;;;;;;;13.50;11.70;;;4.10;99.90;;;;;;4957391;29;20297;-41
2020/12/20 08:59:42;;;;;;;13.93;9.87;;;4.00;99.90;;;;;;4957385;29;20626;-43
2020/12/20 09:02:19;;;;;;;13.50;11.07;;;4.10;99.90;;;;;;4957321;29;20261;-42
2020/12/20 09:04:56;;;;;;;12.90;10.97;;;4.10;99.90;;;;;;4957229;29;20314;-45
2020/12/20 09:07:35;;;;;;;12.73;10.57;;;4.10;99.90;;;;;;4957455;29;20238;-45
2020/12/20 09:10:08;;;;;;;12.97;10.80;;;4.00;99.90;;;;;;4957393;29;20211;-41
2020/12/20 09:12:35;;;;;;;10.80;9.70;;;3.90;99.90;;;;;;4956872;29;20428;-43
2020/12/20 09:15:08;;;;;;;11.40;10.20;;;4.00;99.90;;;;;;4957004;29;20781;-42
2020/12/20 09:17:38;;;;;;;11.90;10.70;;;4.00;99.90;;;;;;4957037;29;20250;-44
2020/12/20 09:20:08;;;;;;;11.20;10.00;;;4.00;99.90;;;;;;4956890;29;20246;-43
2020/12/20 09:22:43;;;;;;;13.83;9.73;;;4.00;99.90;;;;;;4956865;29;20251;-43
2020/12/20 09:25:11;;;;;;;10.40;9.30;;;4.10;99.90;;;;;;4957093;29;20719;-42
2020/12/20 09:27:38;;;;;;;12.20;10.97;;;4.10;99.90;;;;;;4957028;29;20212;-41
2020/12/20 09:30:06;;;;;;;12.80;9.63;;;4.10;99.90;;;;;;4957032;29;20243;-42
2020/12/20 09:32:37;;;;;;;11.07;9.40;;;4.10;99.90;;;;;;4956789;29;20215;-42
2020/12/20 09:35:06;;;;;;;11.47;9.37;;;4.20;99.90;;;;;;4956567;29;20222;-41
2020/12/20 09:37:38;;;;;;;10.67;9.57;;;4.20;99.90;;;;;;4956690;29;20614;-41
2020/12/20 09:40:06;;;;;;;10.80;9.57;;;4.30;99.90;;;;;;4956742;29;20211;-40
2020/12/20 09:42:38;;;;;;;12.90;9.80;;;4.20;99.90;;;;;;4956649;29;20242;-41
2020/12/20 09:45:06;;;;;;;11.10;9.90;;;4.20;99.90;;;;;;4956458;28;20727;-41
2020/12/20 09:47:38;;;;;;;13.77;9.97;;;4.20;99.90;;;;;;4956332;29;20298;-42
2020/12/20 09:50:06;;;;;;;12.80;10.00;;;4.20;99.90;;;;;;4956523;29;20298;-43
2020/12/20 09:52:34;;;;;;;12.70;10.80;;;4.20;99.90;;;;;;4956679;28;20219;-43
2020/12/20 09:55:04;;;;;;;15.10;10.93;;;4.30;99.90;;;;;;4956315;29;20651;-45
2020/12/20 09:57:31;;;;;;;12.27;10.43;;;4.30;99.90;;;;;;4956506;29;20291;-41
2020/12/20 09:59:59;;;;;;;15.23;11.87;;;4.40;99.90;;;;;;4956412;29;20247;-40
2020/12/20 10:02:26;;;;;;;12.30;10.90;;;4.40;99.90;;;;;;4956773;29;20302;-40
2020/12/20 10:04:54;;;;;;;12.37;10.00;;;4.40;99.90;;;;;;4956013;29;20241;-41
2020/12/20 10:07:21;;;;;;;13.00;11.33;;;4.40;99.90;;;;;;4955282;28;20207;-41
2020/12/20 10:09:48;;;;;;;15.25;13.02;;;4.30;99.90;;;;;;4956179;29;20263;-42
2020/12/20 10:12:15;;;;;;;19.57;14.20;;;4.30;99.90;;;;;;4955916;29;20678;-43
2020/12/20 10:14:43;;;;;;;20.43;18.33;;;4.30;99.90;;;;;;4956214;28;20207;-42
2020/12/20 10:17:10;;;;;;;18.63;16.73;;;4.30;99.90;;;;;;4955958;29;20247;-40
2020/12/20 10:19:36;;;;;;;13.40;11.37;;;4.30;99.90;;;;;;4956214;29;20222;-42
2020/12/20 10:22:04;;;;;;;25.17;22.67;;;4.30;99.90;;;;;;4956046;29;20586;-41
2020/12/20 10:24:32;;;;;;;13.03;11.73;;;4.30;99.90;;;;;;4955637;29;20354;-43
2020/12/20 10:26:59;;;;;;;13.03;11.77;;;4.30;99.90;;;;;;4955970;29;20298;-42
2020/12/20 10:29:26;;;;;;;15.00;12.50;;;4.20;99.90;;;;;;4955829;29;20238;-42
2020/12/20 10:31:53;;;;;;;11.63;9.90;;;4.10;99.90;;;;;;4956015;29;20294;-42
2020/12/20 10:34:21;;;;;;;12.00;9.17;;;4.20;99.90;;;;;;4956041;29;20246;-41
2020/12/20 10:36:50;;;;;;;11.93;10.07;;;4.30;99.90;;;;;;4955924;28;20215;-41
2020/12/20 10:39:19;;;;;;;15.37;12.87;;;4.30;99.90;;;;;;4955832;29;20215;-41
2020/12/20 10:41:52;;;;;;;10.77;9.67;;;4.20;99.90;;;;;;4955640;28;20243;-42
2020/12/20 10:44:20;;;;;;;11.47;10.27;;;4.20;99.90;;;;;;4955505;29;20231;-42
2020/12/20 10:46:48;;;;;;;11.47;10.23;;;4.20;99.90;;;;;;4955713;28;20222;-41
2020/12/20 10:49:15;;;;;;;11.93;10.10;;;4.30;99.90;;;;;;4955453;29;20216;-41
2020/12/20 10:51:42;;;;;;;13.03;11.30;;;4.30;99.90;;;;;;4955445;29;20246;-42
2020/12/20 10:54:09;;;;;;;11.60;10.40;;;4.30;99.90;;;;;;4955234;28;20203;-41
2020/12/20 10:56:37;;;;;;;10.75;9.50;;;4.30;99.90;;;;;;4955204;29;20690;-43
2020/12/20 10:59:04;;;;;;;12.93;9.63;;;4.30;99.90;;;;;;4955324;29;20302;-41
2020/12/20 11:01:31;;;;;;;12.40;10.70;;;4.40;99.90;;;;;;4955277;29;20310;-41
2020/12/20 11:03:58;;;;;;;12.47;10.70;;;4.40;99.90;;;;;;4955187;29;20239;-41
2020/12/20 11:06:25;;;;;;;11.37;10.17;;;4.40;99.90;;;;;;4955196;29;20215;-42
2020/12/20 11:08:52;;;;;;;10.60;9.40;;;4.40;99.90;;;;;;4955042;29;20214;-42
2020/12/20 11:11:19;;;;;;;10.37;9.27;;;4.40;99.90;;;;;;4954771;29;20293;-42
2020/12/20 11:13:47;;;;;;;12.40;9.93;;;4.50;99.90;;;;;;4954735;28;20339;-42
2020/12/20 11:16:15;;;;;;;10.77;9.67;;;4.60;99.90;;;;;;4955102;29;20207;-44
2020/12/20 11:18:44;;;;;;;10.77;9.67;;;4.60;99.90;;;;;;4954653;28;20306;-43
2020/12/20 11:21:12;;;;;;;12.53;9.87;;;4.60;99.90;;;;;;4954899;29;20565;-43
2020/12/20 11:23:39;;;;;;;9.83;8.77;;;4.70;99.90;;;;;;4954605;29;20223;-45
2020/12/20 11:26:11;;;;;;;10.83;9.67;;;4.60;99.90;;;;;;4954814;29;20557;-43
2020/12/20 11:28:39;;;;;;;10.87;9.73;;;4.60;99.90;;;;;;4954650;28;20326;-43
2020/12/20 11:31:08;;;;;;;11.13;9.60;;;4.70;99.90;;;;;;4954914;28;20237;-44
2020/12/20 11:33:35;;;;;;;17.47;13.77;;;4.70;99.90;;;;;;4954740;29;20299;-42
2020/12/20 11:36:03;;;;;;;14.13;12.70;;;4.60;99.90;;;;;;4954328;29;20208;-46
2020/12/20 11:38:30;;;;;;;16.27;13.40;;;4.60;99.90;;;;;;4954784;29;20214;-45
2020/12/20 11:40:58;;;;;;;13.97;11.33;;;4.50;99.90;;;;;;4954339;29;20247;-44
2020/12/20 11:43:25;;;;;;;14.20;11.30;;;4.50;99.90;;;;;;4954226;29;20236;-45
2020/12/20 11:45:52;;;;;;;16.40;12.87;;;4.40;99.90;;;;;;4954397;28;20231;-46
2020/12/20 11:48:20;;;;;;;11.77;10.53;;;4.40;99.90;;;;;;4954238;29;20753;-44
2020/12/20 11:50:47;;;;;;;12.60;11.30;;;4.30;99.90;;;;;;4953997;29;20574;-45
2020/12/20 11:53:14;;;;;;;12.43;10.60;;;4.30;99.90;;;;;;4954309;29;20247;-44
2020/12/20 11:55:42;;;;;;;11.43;9.23;;;4.30;99.90;;;;;;4953843;29;20263;-46
2020/12/20 11:58:12;;;;;;;10.33;9.20;;;4.30;99.90;;;;;;4954250;29;20294;-42
2020/12/20 12:00:44;;;;;;;10.63;9.43;;;4.30;99.90;;;;;;4953882;29;20215;-43
2020/12/20 12:03:13;;;;;;;11.17;9.87;;;4.40;99.90;;;;;;4954195;29;20234;-43
2020/12/20 12:05:43;;;;;;;12.43;10.70;;;4.30;99.90;;;;;;4953556;29;20235;-45
2020/12/20 12:08:11;;;;;;;12.47;11.27;;;4.40;99.90;;;;;;4938666;29;20595;-43
2020/12/20 12:10:41;;;;;;;13.70;11.83;;;4.40;99.90;;;;;;4934811;29;20222;-43
2020/12/20 12:13:08;;;;;;;12.07;10.30;;;4.50;99.90;;;;;;4934770;29;20331;-46
2020/12/20 12:15:36;;;;;;;13.90;11.93;;;4.70;99.90;;;;;;4934584;29;20299;-44
2020/12/20 12:18:03;;;;;;;12.80;11.10;;;4.80;99.90;;;;;;4934966;29;20244;-44
2020/12/20 12:20:30;;;;;;;12.13;10.93;;;4.80;99.90;;;;;;4934895;29;20216;-42
2020/12/20 12:22:58;;;;;;;15.77;12.93;;;4.70;99.90;;;;;;4934592;29;20207;-44
2020/12/20 12:25:25;;;;;;;10.97;9.87;;;4.70;99.90;;;;;;4934282;29;20778;-43
2020/12/20 12:27:52;;;;;;;11.90;10.17;;;4.60;99.90;;;;;;4934703;29;20216;-43
2020/12/20 12:30:19;;;;;;;11.83;10.63;;;4.70;99.90;;;;;;4934058;29;20556;-43
2020/12/20 12:32:47;;;;;;;11.33;9.97;;;4.70;99.90;;;;;;4934727;29;20211;-43
2020/12/20 12:35:13;;;;;;;12.97;10.90;;;4.80;99.90;;;;;;4934581;29;20208;-43
2020/12/20 12:37:41;;;;;;;12.70;11.00;;;4.80;99.90;;;;;;4934452;29;20212;-42
2020/12/20 12:40:09;;;;;;;14.87;12.03;;;4.90;99.90;;;;;;4934593;29;20651;-42
2020/12/20 12:42:36;;;;;;;12.67;11.13;;;5.00;99.90;;;;;;4934519;29;20693;-44
2020/12/20 12:45:04;;;;;;;12.53;11.23;;;5.00;99.90;;;;;;4934346;29;20637;-44
2020/12/20 12:47:31;;;;;;;13.80;12.03;;;5.10;99.90;;;;;;4934629;29;20239;-43
2020/12/20 12:49:58;;;;;;;14.70;12.33;;;5.00;99.90;;;;;;4934511;29;20343;-42
2020/12/20 12:52:25;;;;;;;13.90;12.30;;;5.00;99.90;;;;;;4934451;29;20307;-43